Time;durP1;ratioP1;P1;durP2;ratioP2;P2;SDS_P1;SDS_P2;PMS_P1;PMS_P2;Temp;Humidity;BMP_temperature;BMP_pressure;BME280_temperature;BME280_humidity;BME280_pressure;Samples;Min_cycle;Max_cycle;Signal;HPM_P1;HPM_P2
2021/12/23 00:00:36;;;;;;;0.70;0.70;;;-2.90;99.90;;;;;;5013147;28;20217;-71
2021/12/23 00:03:03;;;;;;;0.95;0.95;;;-2.90;99.90;;;;;;5014727;28;20210;-70
2021/12/23 00:05:29;;;;;;;1.38;1.27;;;-2.80;99.90;;;;;;5014378;28;20195;-70
2021/12/23 00:07:55;;;;;;;0.70;0.70;;;-2.80;99.90;;;;;;5014687;28;20301;-70
2021/12/23 00:10:21;;;;;;;0.60;0.60;;;-2.70;99.90;;;;;;5014418;28;20230;-70
2021/12/23 00:12:47;;;;;;;0.80;0.80;;;-2.70;99.90;;;;;;5012407;28;20569;-70
2021/12/23 00:18:04;;;;;;;0.77;0.77;;;-2.70;99.90;;;;;;5013825;28;20253;-70
2021/12/23 00:25:47;;;;;;;0.90;0.90;;;-2.80;99.90;;;;;;4998180;28;20686;-71
2021/12/23 00:28:13;;;;;;;0.80;0.80;;;-2.80;99.90;;;;;;5014258;28;20183;-70
2021/12/23 00:30:39;;;;;;;0.65;0.65;;;-2.90;99.90;;;;;;5014386;28;20234;-72
2021/12/23 00:33:04;;;;;;;21.45;2.25;;;-2.90;99.90;;;;;;5014379;28;20273;-70
2021/12/23 00:35:30;;;;;;;0.80;0.80;;;-2.90;99.90;;;;;;5014189;28;20211;-70
2021/12/23 00:38:03;;;;;;;0.80;0.80;;;-2.90;99.90;;;;;;5012922;28;20219;-70
2021/12/23 00:40:29;;;;;;;0.85;0.85;;;-2.90;99.90;;;;;;5014062;28;20275;-69
2021/12/23 00:42:54;;;;;;;0.80;0.80;;;-2.90;99.90;;;;;;5012512;28;20211;-70
2021/12/23 00:45:21;;;;;;;0.90;0.90;;;-2.90;99.90;;;;;;5013633;28;20264;-71
2021/12/23 00:47:47;;;;;;;1.20;1.10;;;-2.80;99.90;;;;;;5012311;28;20325;-71
2021/12/23 00:50:13;;;;;;;0.70;0.70;;;-2.80;99.90;;;;;;5012433;28;20203;-70
2021/12/23 00:52:40;;;;;;;0.70;0.70;;;-2.80;99.90;;;;;;5012340;28;20210;-70
2021/12/23 00:55:09;;;;;;;1.33;1.23;;;-2.80;99.90;;;;;;5012396;28;20329;-70
2021/12/23 00:57:40;;;;;;;0.73;0.73;;;-2.80;99.90;;;;;;5012198;28;20625;-70
2021/12/23 01:00:10;;;;;;;0.70;0.70;;;-2.70;99.90;;;;;;5012018;28;20228;-70
2021/12/23 01:02:36;;;;;;;0.90;0.90;;;-2.70;99.90;;;;;;5011795;28;20696;-70
2021/12/23 01:05:03;;;;;;;0.80;0.80;;;-2.70;99.90;;;;;;5012177;28;20203;-70
2021/12/23 01:07:29;;;;;;;0.70;0.70;;;-2.70;99.90;;;;;;5003921;28;20213;-71
2021/12/23 01:09:54;;;;;;;0.73;0.73;;;-2.70;99.90;;;;;;5010546;28;20203;-70
2021/12/23 01:12:26;;;;;;;0.80;0.80;;;-2.70;99.90;;;;;;5013116;28;20206;-70
2021/12/23 01:15:17;;;;;;;0.80;0.80;;;-2.60;99.90;;;;;;5011665;28;20206;-70
2021/12/23 01:17:54;;;;;;;0.70;0.70;;;-2.60;99.90;;;;;;5012814;28;20281;-71
2021/12/23 01:20:32;;;;;;;1.42;1.33;;;-2.60;99.90;;;;;;5010755;28;20203;-70
2021/12/23 01:23:00;;;;;;;0.82;0.82;;;-2.60;99.90;;;;;;5013202;28;20203;-70
2021/12/23 01:25:27;;;;;;;0.60;0.60;;;-2.60;99.90;;;;;;5012046;28;20281;-70
2021/12/23 01:27:53;;;;;;;0.70;0.70;;;-2.60;99.90;;;;;;5011697;28;20202;-70
2021/12/23 01:30:19;;;;;;;0.70;0.70;;;-2.70;99.90;;;;;;5011959;28;20265;-71
2021/12/23 01:32:47;;;;;;;0.82;0.80;;;-2.70;99.90;;;;;;5012045;28;20617;-71
2021/12/23 01:35:13;;;;;;;0.70;0.70;;;-2.80;99.90;;;;;;5011528;28;20684;-71
2021/12/23 01:37:39;;;;;;;0.80;0.80;;;-2.70;99.90;;;;;;5011621;28;20230;-71
2021/12/23 01:40:06;;;;;;;0.80;0.80;;;-2.80;99.90;;;;;;5012893;28;20202;-70
2021/12/23 01:42:32;;;;;;;0.60;0.60;;;-2.80;99.90;;;;;;5011218;28;20206;-71
2021/12/23 01:44:58;;;;;;;0.98;0.98;;;-2.80;99.90;;;;;;5009944;28;20260;-70
2021/12/23 01:47:23;;;;;;;0.77;0.77;;;-2.80;99.90;;;;;;5011276;28;20199;-70
2021/12/23 01:49:50;;;;;;;0.60;0.60;;;-2.80;99.90;;;;;;5011322;28;20203;-71
2021/12/23 01:52:16;;;;;;;0.75;0.75;;;-2.80;99.90;;;;;;5010016;28;20203;-71
2021/12/23 01:54:42;;;;;;;0.70;0.70;;;-2.90;99.90;;;;;;5012527;28;20199;-71
2021/12/23 01:57:08;;;;;;;0.80;0.80;;;-2.80;99.90;;;;;;5011550;28;20261;-71
2021/12/23 01:59:34;;;;;;;4.75;2.08;;;-2.80;99.90;;;;;;5009785;28;20230;-71
2021/12/23 02:02:00;;;;;;;0.80;0.80;;;-2.70;99.90;;;;;;5012426;28;20297;-71
2021/12/23 02:04:25;;;;;;;0.70;0.70;;;-2.70;99.90;;;;;;5011419;28;20289;-71
2021/12/23 02:06:51;;;;;;;0.90;0.90;;;-2.60;99.90;;;;;;5012711;28;20576;-71
2021/12/23 02:09:18;;;;;;;0.80;0.80;;;-2.60;99.90;;;;;;5012308;28;20227;-73
2021/12/23 02:11:45;;;;;;;0.80;0.80;;;-2.60;99.90;;;;;;5011133;28;20207;-73
2021/12/23 02:14:10;;;;;;;0.90;0.88;;;-2.60;99.90;;;;;;5012894;28;20261;-73
2021/12/23 02:16:36;;;;;;;1.98;1.80;;;-2.60;99.90;;;;;;5011981;28;20258;-73
2021/12/23 02:19:18;;;;;;;0.80;0.80;;;-2.60;99.90;;;;;;5010922;28;20221;-71
2021/12/23 02:21:44;;;;;;;0.80;0.80;;;-2.60;99.90;;;;;;5011871;28;20218;-74
2021/12/23 02:24:10;;;;;;;0.63;0.63;;;-2.60;99.90;;;;;;5010903;28;20218;-71
2021/12/23 02:26:41;;;;;;;0.80;0.80;;;-2.60;99.90;;;;;;5011858;28;20207;-74
2021/12/23 02:29:07;;;;;;;0.77;0.77;;;-2.60;99.90;;;;;;5010877;28;20280;-73
2021/12/23 02:31:33;;;;;;;0.70;0.70;;;-2.50;99.90;;;;;;5011858;28;20619;-73
2021/12/23 02:33:59;;;;;;;0.70;0.70;;;-2.50;99.90;;;;;;5010546;28;20207;-74
2021/12/23 02:36:26;;;;;;;0.80;0.80;;;-2.50;99.90;;;;;;5010542;28;20210;-74
2021/12/23 02:38:52;;;;;;;0.75;0.75;;;-2.50;99.90;;;;;;5010687;28;20678;-74
2021/12/23 02:41:18;;;;;;;0.80;0.80;;;-2.50;99.90;;;;;;5011753;28;20210;-74
2021/12/23 02:43:44;;;;;;;0.80;0.80;;;-2.50;99.90;;;;;;5010012;28;20583;-74
2021/12/23 02:46:09;;;;;;;0.70;0.70;;;-2.50;99.90;;;;;;5011749;28;20206;-74
2021/12/23 02:48:37;;;;;;;0.80;0.80;;;-2.50;99.90;;;;;;5010221;28;20656;-74
2021/12/23 02:51:06;;;;;;;2.88;2.55;;;-2.50;99.90;;;;;;5010792;28;20198;-74
2021/12/23 02:53:32;;;;;;;0.70;0.70;;;-2.50;99.90;;;;;;5011481;28;20689;-74
2021/12/23 02:56:00;;;;;;;0.80;0.80;;;-2.50;99.90;;;;;;5011664;28;20199;-73
2021/12/23 02:58:26;;;;;;;0.70;0.70;;;-2.50;99.90;;;;;;5009822;28;20211;-73
2021/12/23 03:00:54;;;;;;;0.88;0.88;;;-2.50;99.90;;;;;;5008914;28;20217;-73
2021/12/23 03:03:21;;;;;;;0.80;0.80;;;-2.60;99.90;;;;;;5010280;28;20292;-71
2021/12/23 03:05:49;;;;;;;0.80;0.80;;;-2.60;99.90;;;;;;5010078;28;20388;-72
2021/12/23 03:08:15;;;;;;;0.68;0.68;;;-2.60;99.90;;;;;;5010189;28;20747;-73
2021/12/23 03:10:42;;;;;;;1.65;1.55;;;-2.50;99.90;;;;;;5009787;28;20310;-73
2021/12/23 03:13:07;;;;;;;0.80;0.80;;;-2.50;99.90;;;;;;5011437;28;20273;-72
2021/12/23 03:15:33;;;;;;;0.80;0.80;;;-2.50;99.90;;;;;;5009733;28;20230;-72
2021/12/23 03:17:58;;;;;;;1.00;1.00;;;-2.50;99.90;;;;;;5011398;28;20206;-72
2021/12/23 03:20:24;;;;;;;0.70;0.70;;;-2.50;99.90;;;;;;5011161;28;20280;-72
2021/12/23 03:22:50;;;;;;;1.10;0.98;;;-2.60;99.90;;;;;;5013143;28;20206;-73
2021/12/23 03:25:15;;;;;;;0.70;0.70;;;-2.60;99.90;;;;;;5017719;28;20210;-73
2021/12/23 03:27:41;;;;;;;1.05;1.05;;;-2.60;99.90;;;;;;5014948;28;20210;-73
2021/12/23 03:30:07;;;;;;;0.70;0.70;;;-2.60;99.90;;;;;;5015215;28;20202;-72
2021/12/23 03:32:34;;;;;;;1.02;1.02;;;-2.60;99.90;;;;;;5017536;28;20203;-70
2021/12/23 03:34:59;;;;;;;0.75;0.75;;;-2.60;99.90;;;;;;5011638;28;20231;-70
2021/12/23 03:37:25;;;;;;;1.63;1.52;;;-2.60;99.90;;;;;;5011767;28;20253;-70
2021/12/23 03:39:53;;;;;;;0.70;0.70;;;-2.50;99.90;;;;;;5017435;28;20210;-72
2021/12/23 03:42:19;;;;;;;1.48;1.27;;;-2.50;99.90;;;;;;5017210;28;20298;-73
2021/12/23 03:44:45;;;;;;;1.13;1.13;;;-2.50;99.90;;;;;;5017678;28;20210;-73
2021/12/23 03:47:11;;;;;;;0.80;0.80;;;-2.60;99.90;;;;;;5016176;28;20618;-73
2021/12/23 03:49:37;;;;;;;0.73;0.73;;;-2.50;99.90;;;;;;5017522;28;20229;-72
2021/12/23 03:52:03;;;;;;;0.80;0.80;;;-2.50;99.90;;;;;;5017503;28;20268;-72
2021/12/23 03:54:28;;;;;;;0.70;0.70;;;-2.60;99.90;;;;;;5016218;28;20209;-70
2021/12/23 03:56:54;;;;;;;0.60;0.60;;;-2.60;99.90;;;;;;5017514;28;20207;-72
2021/12/23 03:59:20;;;;;;;0.80;0.80;;;-2.50;99.90;;;;;;5016121;28;20266;-73
2021/12/23 04:01:46;;;;;;;0.88;0.88;;;-2.50;99.90;;;;;;5014175;28;20222;-73
2021/12/23 04:04:11;;;;;;;0.70;0.70;;;-2.50;99.90;;;;;;5017487;28;20253;-73
2021/12/23 04:06:37;;;;;;;1.25;1.17;;;-2.50;99.90;;;;;;5017239;28;20202;-73
2021/12/23 04:09:03;;;;;;;0.70;0.70;;;-2.50;99.90;;;;;;5017817;28;20203;-73
2021/12/23 04:11:29;;;;;;;0.70;0.70;;;-2.50;99.90;;;;;;5017161;28;20199;-73
2021/12/23 04:13:55;;;;;;;0.70;0.70;;;-2.50;99.90;;;;;;5016341;28;20242;-70
2021/12/23 04:16:21;;;;;;;0.70;0.70;;;-2.50;99.90;;;;;;5015565;28;20729;-71
2021/12/23 04:18:50;;;;;;;0.70;0.70;;;-2.50;99.90;;;;;;5015935;28;20286;-71
2021/12/23 04:21:16;;;;;;;0.77;0.77;;;-2.50;99.90;;;;;;5017049;28;20601;-71
2021/12/23 04:23:41;;;;;;;0.70;0.70;;;-2.50;99.90;;;;;;5013407;28;20217;-71
2021/12/23 04:26:09;;;;;;;0.70;0.70;;;-2.50;99.90;;;;;;5014471;28;20206;-71
2021/12/23 04:28:45;;;;;;;0.80;0.80;;;-2.40;99.90;;;;;;5014447;28;20294;-71
2021/12/23 04:31:12;;;;;;;0.80;0.80;;;-2.40;99.90;;;;;;5015881;28;20237;-71
2021/12/23 04:33:37;;;;;;;0.70;0.70;;;-2.40;99.90;;;;;;5017087;28;20630;-72
2021/12/23 04:36:03;;;;;;;0.75;0.75;;;-2.50;99.90;;;;;;5012005;28;20222;-71
2021/12/23 04:38:29;;;;;;;1.55;1.08;;;-2.50;99.90;;;;;;5012221;28;20285;-71
2021/12/23 04:40:55;;;;;;;0.90;0.90;;;-2.40;99.90;;;;;;5011495;28;20313;-71
2021/12/23 04:43:21;;;;;;;0.80;0.80;;;-2.40;99.90;;;;;;5013798;28;20577;-71
2021/12/23 04:45:47;;;;;;;0.90;0.90;;;-2.40;99.90;;;;;;5013844;28;20206;-71
2021/12/23 04:48:12;;;;;;;0.80;0.80;;;-2.40;99.90;;;;;;5013857;28;20199;-71
2021/12/23 04:50:38;;;;;;;0.68;0.68;;;-2.30;99.90;;;;;;5012251;28;20616;-71
2021/12/23 04:53:04;;;;;;;0.80;0.80;;;-2.40;99.90;;;;;;5012516;28;20609;-70
2021/12/23 04:55:30;;;;;;;0.70;0.70;;;-2.40;99.90;;;;;;5013325;28;20206;-71
2021/12/23 04:57:57;;;;;;;0.60;0.60;;;-2.40;99.90;;;;;;5027795;28;20203;-71
2021/12/23 05:00:23;;;;;;;1.48;1.38;;;-2.40;99.90;;;;;;5013232;28;20203;-72
2021/12/23 05:02:49;;;;;;;0.85;0.85;;;-2.40;99.90;;;;;;5012013;28;20253;-72
2021/12/23 05:05:16;;;;;;;0.70;0.70;;;-2.40;99.90;;;;;;5013336;28;20203;-72
2021/12/23 05:07:41;;;;;;;0.73;0.73;;;-2.40;99.90;;;;;;5012017;28;20234;-72
2021/12/23 05:10:09;;;;;;;0.70;0.70;;;-2.40;99.90;;;;;;5012122;28;20621;-71
2021/12/23 05:12:42;;;;;;;0.70;0.70;;;-2.40;99.90;;;;;;5013128;28;20203;-72
2021/12/23 05:15:08;;;;;;;0.70;0.70;;;-2.40;99.90;;;;;;5013327;28;20230;-72
2021/12/23 05:17:34;;;;;;;1.08;1.08;;;-2.40;99.90;;;;;;5012374;28;20214;-71
2021/12/23 05:19:59;;;;;;;0.70;0.70;;;-2.40;99.90;;;;;;5010599;28;20207;-71
2021/12/23 05:22:25;;;;;;;0.70;0.70;;;-2.40;99.90;;;;;;5011662;28;20226;-72
2021/12/23 05:24:52;;;;;;;0.75;0.75;;;-2.30;99.90;;;;;;5010440;28;20257;-71
2021/12/23 05:27:17;;;;;;;0.70;0.70;;;-2.30;99.90;;;;;;5011568;28;20205;-71
2021/12/23 05:29:43;;;;;;;0.88;0.88;;;-2.30;99.90;;;;;;5011664;28;20278;-71
2021/12/23 05:32:09;;;;;;;0.70;0.70;;;-2.30;99.90;;;;;;5010270;28;20255;-71
2021/12/23 05:34:34;;;;;;;0.70;0.70;;;-2.20;99.90;;;;;;5011029;28;20573;-71
2021/12/23 05:37:00;;;;;;;1.80;1.35;;;-2.30;99.90;;;;;;5011460;28;20206;-69
2021/12/23 05:39:26;;;;;;;2.65;2.33;;;-2.30;99.90;;;;;;5012471;28;20213;-71
2021/12/23 05:41:51;;;;;;;0.77;0.77;;;-2.30;99.90;;;;;;5012727;28;20206;-71
2021/12/23 05:44:17;;;;;;;0.70;0.70;;;-2.20;99.90;;;;;;5012746;28;20198;-70
2021/12/23 05:46:43;;;;;;;0.77;0.77;;;-2.30;99.90;;;;;;5011668;28;20693;-71
2021/12/23 05:49:08;;;;;;;0.60;0.60;;;-2.20;99.90;;;;;;5012988;28;20207;-72
2021/12/23 05:51:34;;;;;;;1.45;1.20;;;-2.20;99.90;;;;;;5012834;28;20278;-71
2021/12/23 05:54:00;;;;;;;1.30;1.20;;;-2.20;99.90;;;;;;5012605;28;20211;-72
2021/12/23 05:56:26;;;;;;;0.80;0.80;;;-2.20;99.90;;;;;;5010098;28;20701;-72
2021/12/23 05:58:52;;;;;;;3.40;2.22;;;-2.20;99.90;;;;;;5012285;28;20226;-71
2021/12/23 06:01:17;;;;;;;1.33;1.23;;;-2.20;99.90;;;;;;5012324;28;20215;-71
2021/12/23 06:03:46;;;;;;;0.82;0.82;;;-2.20;99.90;;;;;;5010933;28;20230;-72
2021/12/23 06:06:13;;;;;;;0.90;0.90;;;-2.20;99.90;;;;;;5012376;28;20199;-70
2021/12/23 06:08:39;;;;;;;0.82;0.82;;;-2.20;99.90;;;;;;5010910;28;20685;-71
2021/12/23 06:11:05;;;;;;;0.70;0.70;;;-2.20;99.90;;;;;;5011024;28;20337;-72
2021/12/23 06:13:31;;;;;;;0.95;0.95;;;-2.20;99.90;;;;;;5012273;28;20677;-72
2021/12/23 06:15:56;;;;;;;1.52;1.42;;;-2.30;99.90;;;;;;5010759;28;20575;-72
2021/12/23 06:18:22;;;;;;;0.80;0.80;;;-2.20;99.90;;;;;;5010645;28;20234;-72
2021/12/23 06:20:48;;;;;;;0.73;0.73;;;-2.20;99.90;;;;;;5010590;28;20603;-71
2021/12/23 06:23:13;;;;;;;0.70;0.70;;;-2.20;99.90;;;;;;5010931;28;20678;-72
2021/12/23 06:25:39;;;;;;;0.80;0.80;;;-2.20;99.90;;;;;;5011982;28;20278;-73
2021/12/23 06:28:05;;;;;;;0.70;0.70;;;-2.20;99.90;;;;;;5010660;28;20206;-71
2021/12/23 06:30:31;;;;;;;0.80;0.80;;;-2.20;99.90;;;;;;5010366;28;20285;-72
2021/12/23 06:32:57;;;;;;;0.77;0.77;;;-2.20;99.90;;;;;;5012062;28;20279;-72
2021/12/23 06:35:25;;;;;;;0.70;0.70;;;-2.20;99.90;;;;;;5011626;28;20202;-72
2021/12/23 06:37:52;;;;;;;0.80;0.80;;;-2.20;99.90;;;;;;5011967;28;20745;-72
2021/12/23 06:40:18;;;;;;;0.70;0.70;;;-2.20;99.90;;;;;;5010518;28;20258;-73
2021/12/23 06:42:45;;;;;;;0.80;0.80;;;-2.20;99.90;;;;;;5011644;28;20210;-72
2021/12/23 06:45:11;;;;;;;0.70;0.70;;;-2.20;99.90;;;;;;5009199;28;20191;-73
2021/12/23 06:47:38;;;;;;;0.70;0.70;;;-2.20;99.90;;;;;;5009111;28;20286;-72
2021/12/23 06:50:05;;;;;;;0.75;0.75;;;-2.30;99.90;;;;;;5010440;28;20206;-72
2021/12/23 06:52:31;;;;;;;1.02;1.00;;;-2.30;99.90;;;;;;5011010;28;20207;-71
2021/12/23 06:54:58;;;;;;;0.70;0.70;;;-2.30;99.90;;;;;;5009184;28;20210;-70
2021/12/23 06:57:25;;;;;;;0.70;0.70;;;-2.30;99.90;;;;;;5010012;28;20253;-72
2021/12/23 06:59:50;;;;;;;0.70;0.70;;;-2.30;99.90;;;;;;5009348;28;20748;-73
2021/12/23 07:02:17;;;;;;;0.77;0.77;;;-2.30;99.90;;;;;;5011634;28;20302;-71
2021/12/23 07:04:44;;;;;;;0.80;0.80;;;-2.30;99.90;;;;;;5010202;28;20199;-70
2021/12/23 07:07:24;;;;;;;1.20;1.15;;;-2.30;99.90;;;;;;5010118;28;20576;-71
2021/12/23 07:09:49;;;;;;;0.80;0.80;;;-2.30;99.90;;;;;;5010230;28;20293;-72
2021/12/23 07:12:15;;;;;;;0.60;0.60;;;-2.30;99.90;;;;;;5011337;28;20297;-73
2021/12/23 07:14:41;;;;;;;0.80;0.80;;;-2.20;99.90;;;;;;5027356;28;20214;-73
2021/12/23 07:17:07;;;;;;;0.75;0.75;;;-2.20;99.90;;;;;;5009942;28;20249;-71
2021/12/23 07:19:34;;;;;;;1.05;1.05;;;-2.20;99.90;;;;;;5009894;28;20205;-70
2021/12/23 07:22:00;;;;;;;0.77;0.77;;;-2.20;99.90;;;;;;5011092;28;20226;-71
2021/12/23 07:24:25;;;;;;;0.73;0.73;;;-2.30;99.90;;;;;;5009624;28;20578;-72
2021/12/23 07:26:51;;;;;;;0.70;0.70;;;-2.30;99.90;;;;;;5010957;28;20318;-71
2021/12/23 07:29:17;;;;;;;0.70;0.70;;;-2.30;99.90;;;;;;5008465;28;20198;-71
2021/12/23 07:31:42;;;;;;;0.75;0.75;;;-2.30;99.90;;;;;;5011078;28;20206;-72
2021/12/23 07:34:08;;;;;;;0.73;0.73;;;-2.30;99.90;;;;;;5011102;28;20241;-72
2021/12/23 07:36:35;;;;;;;0.65;0.65;;;-2.30;99.90;;;;;;5010903;28;20214;-72
2021/12/23 07:39:01;;;;;;;0.70;0.70;;;-2.30;99.90;;;;;;5011250;28;20222;-72
2021/12/23 07:41:27;;;;;;;0.88;0.88;;;-2.20;99.90;;;;;;5009568;28;20202;-73
2021/12/23 07:44:02;;;;;;;0.80;0.80;;;-2.30;99.90;;;;;;5011127;28;20195;-73
2021/12/23 07:46:30;;;;;;;0.85;0.85;;;-2.30;99.90;;;;;;5008211;28;20194;-71
2021/12/23 07:48:57;;;;;;;0.70;0.70;;;-2.20;99.90;;;;;;4999262;28;20210;-70
2021/12/23 07:51:23;;;;;;;0.70;0.70;;;-2.30;99.90;;;;;;5009564;28;20281;-70
2021/12/23 07:53:50;;;;;;;0.82;0.82;;;-2.20;99.90;;;;;;5008790;28;20206;-71
2021/12/23 07:56:16;;;;;;;0.60;0.60;;;-2.20;99.90;;;;;;5011085;28;20203;-71
2021/12/23 07:58:43;;;;;;;0.68;0.68;;;-2.20;99.90;;;;;;5009699;28;20213;-71
2021/12/23 08:01:08;;;;;;;0.70;0.70;;;-2.30;99.90;;;;;;5010727;28;20682;-72
2021/12/23 08:03:34;;;;;;;0.70;0.70;;;-2.20;99.90;;;;;;5011066;28;20195;-71
2021/12/23 08:06:00;;;;;;;0.80;0.80;;;-2.30;99.90;;;;;;5011003;28;20206;-71
2021/12/23 08:08:26;;;;;;;0.63;0.63;;;-2.30;99.90;;;;;;5010995;28;20206;-72
2021/12/23 08:10:51;;;;;;;0.60;0.60;;;-2.30;99.90;;;;;;5012967;28;20216;-71
2021/12/23 08:13:17;;;;;;;0.60;0.60;;;-2.30;99.90;;;;;;5014355;28;20341;-72
2021/12/23 08:15:43;;;;;;;0.70;0.70;;;-2.30;99.90;;;;;;5014163;28;20285;-71
2021/12/23 08:18:09;;;;;;;0.88;0.88;;;-2.30;99.90;;;;;;5014426;28;20670;-71
2021/12/23 08:20:35;;;;;;;0.82;0.82;;;-2.30;99.90;;;;;;5012573;28;20211;-71
2021/12/23 08:23:01;;;;;;;0.77;0.77;;;-2.30;99.90;;;;;;5013189;28;20253;-71
2021/12/23 08:25:27;;;;;;;0.63;0.63;;;-2.30;99.90;;;;;;5012681;28;20207;-70
2021/12/23 08:27:53;;;;;;;0.70;0.70;;;-2.30;99.90;;;;;;5011417;28;20231;-71
2021/12/23 08:30:20;;;;;;;0.90;0.90;;;-2.30;99.90;;;;;;5012809;28;20270;-73
2021/12/23 08:32:47;;;;;;;0.80;0.80;;;-2.30;99.90;;;;;;5012919;28;20206;-71
2021/12/23 08:35:14;;;;;;;0.90;0.90;;;-2.30;99.90;;;;;;5012703;28;20318;-71
2021/12/23 08:37:44;;;;;;;0.80;0.80;;;-2.30;99.90;;;;;;5013908;28;20215;-72
2021/12/23 08:40:10;;;;;;;0.75;0.75;;;-2.20;99.90;;;;;;5012754;28;20225;-71
2021/12/23 08:42:36;;;;;;;0.77;0.77;;;-2.20;99.90;;;;;;5013696;28;20609;-71
2021/12/23 08:45:04;;;;;;;0.80;0.80;;;-2.20;99.90;;;;;;5012636;28;20253;-71
2021/12/23 08:47:30;;;;;;;1.15;1.05;;;-2.30;99.90;;;;;;5010992;28;20206;-72
2021/12/23 08:49:57;;;;;;;0.70;0.70;;;-2.20;99.90;;;;;;5012413;28;20210;-72
2021/12/23 08:52:22;;;;;;;0.80;0.80;;;-2.20;99.90;;;;;;5013831;28;20565;-72
2021/12/23 08:54:48;;;;;;;0.80;0.80;;;-2.20;99.90;;;;;;5013063;28;20289;-72
2021/12/23 08:57:14;;;;;;;0.73;0.73;;;-2.30;99.90;;;;;;5012608;28;20534;-72
2021/12/23 08:59:40;;;;;;;0.73;0.73;;;-2.30;99.90;;;;;;5012457;28;20210;-71
2021/12/23 09:02:07;;;;;;;0.70;0.70;;;-2.30;99.90;;;;;;5013391;28;20214;-72
2021/12/23 09:04:33;;;;;;;0.90;0.90;;;-2.30;99.90;;;;;;5013195;28;20203;-71
2021/12/23 09:06:58;;;;;;;0.80;0.80;;;-2.40;99.90;;;;;;5013395;28;20214;-73
2021/12/23 09:09:24;;;;;;;0.80;0.80;;;-2.30;99.90;;;;;;5012536;28;20202;-72
2021/12/23 09:11:51;;;;;;;0.80;0.80;;;-2.30;99.90;;;;;;5010909;28;20254;-74
2021/12/23 09:14:17;;;;;;;0.70;0.70;;;-2.30;99.90;;;;;;5013588;28;20352;-73
2021/12/23 09:16:43;;;;;;;0.82;0.82;;;-2.40;99.90;;;;;;5011686;28;20262;-73
2021/12/23 09:19:09;;;;;;;0.80;0.80;;;-2.40;99.90;;;;;;5011945;28;20565;-72
2021/12/23 09:21:36;;;;;;;0.80;0.80;;;-2.30;99.90;;;;;;5012512;28;20269;-72
2021/12/23 09:24:03;;;;;;;0.82;0.82;;;-2.30;99.90;;;;;;5012124;28;20225;-72
2021/12/23 09:26:33;;;;;;;0.80;0.80;;;-2.30;99.90;;;;;;5011624;28;20229;-73
2021/12/23 09:29:15;;;;;;;0.80;0.80;;;-2.20;99.90;;;;;;5013183;28;20245;-72
2021/12/23 09:34:25;;;;;;;1.05;1.05;;;-2.30;99.90;;;;;;5012955;28;20281;-72
2021/12/23 09:36:51;;;;;;;1.33;1.17;;;-2.20;99.90;;;;;;5011779;28;20221;-72
2021/12/23 09:39:17;;;;;;;2.95;1.38;;;-2.20;99.90;;;;;;5010295;28;20527;-72
2021/12/23 09:41:45;;;;;;;0.80;0.80;;;-2.20;99.90;;;;;;5013065;28;20215;-72
2021/12/23 09:44:11;;;;;;;0.80;0.80;;;-2.30;99.90;;;;;;5010302;28;20233;-74
2021/12/23 09:46:38;;;;;;;0.90;0.90;;;-2.20;99.90;;;;;;5011209;28;20202;-73
2021/12/23 09:49:06;;;;;;;0.93;0.93;;;-2.20;99.90;;;;;;5011865;28;20210;-72
2021/12/23 09:51:33;;;;;;;0.90;0.90;;;-2.20;99.90;;;;;;5013695;28;20591;-73
2021/12/23 09:54:03;;;;;;;0.90;0.90;;;-2.20;99.90;;;;;;5010980;28;20250;-73
2021/12/23 09:56:30;;;;;;;0.70;0.70;;;-2.20;99.90;;;;;;4994381;28;20569;-72
2021/12/23 09:58:58;;;;;;;0.70;0.70;;;-2.20;99.90;;;;;;5012760;28;20198;-72
2021/12/23 10:01:24;;;;;;;0.77;0.77;;;-2.30;99.90;;;;;;5012198;28;20570;-72
2021/12/23 10:03:50;;;;;;;0.80;0.80;;;-2.30;99.90;;;;;;5011484;28;20211;-73
2021/12/23 10:06:16;;;;;;;0.80;0.80;;;-2.30;99.90;;;;;;5012107;28;20257;-73
2021/12/23 10:08:43;;;;;;;0.70;0.70;;;-2.30;99.90;;;;;;5012237;28;20557;-70
2021/12/23 10:31:34;;;;;;;0.80;0.80;;;-2.20;99.90;;;;;;5010782;28;20774;-73
2021/12/23 10:39:43;;;;;;;0.80;0.80;;;-2.30;99.90;;;;;;5011614;28;20665;-73
2021/12/23 10:42:17;;;;;;;0.70;0.70;;;-2.30;99.90;;;;;;5011466;28;20282;-74
2021/12/23 10:45:01;;;;;;;0.80;0.80;;;-2.40;99.90;;;;;;5011266;28;20310;-73
2021/12/23 10:47:34;;;;;;;0.80;0.80;;;-2.30;99.90;;;;;;5009323;28;20210;-71
2021/12/23 10:50:30;;;;;;;0.70;0.70;;;-2.30;99.90;;;;;;5011415;28;20211;-71
2021/12/23 10:53:07;;;;;;;0.70;0.70;;;-2.30;99.90;;;;;;4994572;28;20203;-72
2021/12/23 10:58:17;;;;;;;0.70;0.70;;;-2.30;99.90;;;;;;5010564;28;20715;-71
2021/12/23 11:00:49;;;;;;;0.70;0.70;;;-2.40;99.90;;;;;;5009726;28;20222;-71
2021/12/23 11:03:38;;;;;;;0.80;0.80;;;-2.50;99.90;;;;;;5011592;28;20599;-71
2021/12/23 11:06:34;;;;;;;0.70;0.70;;;-2.50;99.90;;;;;;5010693;28;20733;-71
2021/12/23 11:09:19;;;;;;;0.80;0.80;;;-2.50;99.90;;;;;;5011282;28;20242;-72
2021/12/23 11:36:18;;;;;;;1.25;1.23;;;-2.60;99.90;;;;;;5010586;28;20752;-71
2021/12/23 11:46:25;;;;;;;1.13;1.08;;;-2.70;99.90;;;;;;5015581;28;20218;-70
2021/12/23 11:48:54;;;;;;;0.80;0.80;;;-2.70;99.90;;;;;;4996360;28;20203;-71
2021/12/23 11:51:31;;;;;;;0.80;0.80;;;-2.70;99.90;;;;;;5013889;28;20202;-71
2021/12/23 11:53:58;;;;;;;0.70;0.70;;;-2.80;99.90;;;;;;5013641;28;20226;-71
2021/12/23 11:56:25;;;;;;;0.85;0.85;;;-2.80;99.90;;;;;;5013452;28;20686;-71
2021/12/23 11:58:51;;;;;;;0.80;0.80;;;-2.80;99.90;;;;;;5013556;28;20222;-71
2021/12/23 12:01:20;;;;;;;0.80;0.80;;;-2.80;99.90;;;;;;5013784;28;20209;-70
2021/12/23 12:04:03;;;;;;;0.80;0.80;;;-2.80;99.90;;;;;;5013545;28;20281;-70
2021/12/23 12:06:46;;;;;;;0.85;0.85;;;-2.80;99.90;;;;;;5014239;28;20989;-71
2021/12/23 12:09:28;;;;;;;0.75;0.75;;;-2.80;99.90;;;;;;4998127;28;20256;-71
2021/12/23 12:11:59;;;;;;;0.80;0.80;;;-2.80;99.90;;;;;;4997380;28;20701;-70
2021/12/23 12:14:40;;;;;;;0.82;0.82;;;-2.70;99.90;;;;;;5013679;28;20203;-70
2021/12/23 12:17:28;;;;;;;0.88;0.88;;;-2.70;99.90;;;;;;5013178;28;20225;-71
2021/12/23 12:20:23;;;;;;;0.70;0.70;;;-2.70;99.90;;;;;;5012035;28;20199;-71
2021/12/23 12:22:52;;;;;;;0.80;0.80;;;-2.70;99.90;;;;;;5012944;28;20210;-72
2021/12/23 12:25:26;;;;;;;0.70;0.70;;;-2.70;99.90;;;;;;5014343;28;20568;-72
2021/12/23 12:28:12;;;;;;;0.80;0.80;;;-2.80;99.90;;;;;;5014195;28;20214;-73
2021/12/23 12:30:50;;;;;;;0.80;0.80;;;-2.80;99.90;;;;;;5012955;28;20202;-71
2021/12/23 12:33:19;;;;;;;0.80;0.80;;;-2.90;99.90;;;;;;5014182;28;20210;-71
2021/12/23 12:36:03;;;;;;;0.70;0.70;;;-2.90;99.90;;;;;;5012819;28;20340;-72
2021/12/23 12:38:32;;;;;;;0.70;0.70;;;-3.00;99.90;;;;;;5012450;28;20662;-71
2021/12/23 12:41:00;;;;;;;0.80;0.80;;;-2.90;99.90;;;;;;5013885;28;20260;-71
2021/12/23 12:43:40;;;;;;;0.70;0.70;;;-3.00;99.90;;;;;;5013879;28;20218;-71
2021/12/23 12:46:08;;;;;;;0.80;0.80;;;-3.00;99.90;;;;;;5012791;28;20676;-70
2021/12/23 12:48:56;;;;;;;0.80;0.80;;;-3.00;99.90;;;;;;5012704;28;20570;-70
2021/12/23 12:51:26;;;;;;;0.90;0.90;;;-3.10;99.90;;;;;;5013584;28;20582;-70
2021/12/23 12:54:07;;;;;;;1.65;1.55;;;-3.10;99.90;;;;;;5012881;28;20264;-71
2021/12/23 12:56:36;;;;;;;1.00;1.00;;;-3.10;99.90;;;;;;5012917;28;20263;-71
2021/12/23 12:59:07;;;;;;;0.90;0.90;;;-3.10;99.90;;;;;;5013662;28;20554;-71
2021/12/23 13:01:40;;;;;;;4.63;2.55;;;-3.10;99.90;;;;;;5013201;28;20202;-73
2021/12/23 13:04:21;;;;;;;4.32;1.90;;;-3.10;99.90;;;;;;5013550;28;20674;-71
2021/12/23 13:06:47;;;;;;;0.98;0.98;;;-3.10;99.90;;;;;;5011144;28;20199;-70
2021/12/23 13:09:17;;;;;;;1.33;1.27;;;-3.20;99.90;;;;;;5013596;28;20516;-70
2021/12/23 13:11:44;;;;;;;0.90;0.90;;;-3.20;99.90;;;;;;5013095;28;20230;-70
2021/12/23 13:14:19;;;;;;;0.82;0.82;;;-3.20;99.90;;;;;;5013395;28;20214;-70
2021/12/23 13:16:55;;;;;;;0.75;0.75;;;-3.20;99.90;;;;;;5013112;28;20234;-70
2021/12/23 13:19:31;;;;;;;0.80;0.80;;;-3.20;99.90;;;;;;5010787;28;20657;-69
2021/12/23 13:21:58;;;;;;;1.00;0.98;;;-3.20;99.90;;;;;;5010690;28;20377;-70
2021/12/23 13:24:26;;;;;;;0.80;0.80;;;-3.10;99.90;;;;;;5011816;28;20418;-70
2021/12/23 13:26:54;;;;;;;0.85;0.85;;;-3.10;99.90;;;;;;5010702;28;20215;-72
2021/12/23 13:29:26;;;;;;;1.10;1.10;;;-3.10;99.90;;;;;;5012919;28;20202;-71
2021/12/23 13:31:52;;;;;;;1.33;1.23;;;-3.10;99.90;;;;;;5011975;28;20353;-71
2021/12/23 13:34:24;;;;;;;0.90;0.90;;;-3.20;99.90;;;;;;5012936;28;20198;-71
2021/12/23 13:36:53;;;;;;;0.90;0.90;;;-3.20;99.90;;;;;;5011669;28;20661;-71
2021/12/23 13:39:22;;;;;;;0.80;0.80;;;-3.20;99.90;;;;;;5012857;28;20236;-71
2021/12/23 13:41:58;;;;;;;1.08;1.08;;;-3.30;99.90;;;;;;5011545;28;20214;-72
2021/12/23 13:44:46;;;;;;;0.90;0.90;;;-3.30;99.90;;;;;;5010047;28;20693;-72
2021/12/23 13:47:20;;;;;;;0.90;0.90;;;-3.30;99.90;;;;;;5011720;28;20740;-71
2021/12/23 13:49:58;;;;;;;0.70;0.70;;;-3.30;99.90;;;;;;5010657;28;20289;-72
2021/12/23 13:52:40;;;;;;;0.80;0.80;;;-3.30;99.90;;;;;;5011373;28;20206;-70
2021/12/23 13:55:19;;;;;;;0.80;0.80;;;-3.40;99.90;;;;;;5011365;28;20253;-71
2021/12/23 13:57:47;;;;;;;0.80;0.80;;;-3.40;99.90;;;;;;5001913;28;20203;-71
2021/12/23 14:00:28;;;;;;;0.80;0.80;;;-3.40;99.90;;;;;;5002855;28;20203;-71
2021/12/23 14:03:05;;;;;;;0.90;0.90;;;-3.40;99.90;;;;;;5009644;28;20581;-70
2021/12/23 14:05:31;;;;;;;0.90;0.90;;;-3.40;99.90;;;;;;5010834;28;20618;-71